Time;durP1;ratioP1;P1;durP2;ratioP2;P2;SDS_P1;SDS_P2;PMS_P1;PMS_P2;Temp;Humidity;BMP_temperature;BMP_pressure;BME280_temperature;BME280_humidity;BME280_pressure;Samples;Min_cycle;Max_cycle;Signal;HPM_P1;HPM_P2
2022/05/31 00:00:30;;;;;;;11.48;4.85;;;;;;;;;;7331931;19;162802;-16
2022/05/31 00:03:03;;;;;;;9.35;5.18;;;;;;;;;;7335314;19;154263;-16
2022/05/31 00:05:35;;;;;;;10.85;5.03;;;;;;;;;;7334619;19;153507;-16
2022/05/31 00:08:07;;;;;;;7.63;5.07;;;;;;;;;;7334515;19;161819;-19
2022/05/31 00:10:41;;;;;;;9.43;5.38;;;;;;;;;;7334534;19;162373;-16
2022/05/31 00:13:15;;;;;;;9.43;4.82;;;;;;;;;;7334835;19;154109;-16
2022/05/31 00:15:46;;;;;;;6.43;4.32;;;;;;;;;;7334483;19;153627;-16
2022/05/31 00:18:36;;;;;;;7.45;4.50;;;;;;;;;;7334630;19;161972;-16
2022/05/31 00:21:08;;;;;;;6.95;4.50;;;;;;;;;;7334240;19;162533;-16
2022/05/31 00:23:42;;;;;;;6.40;4.60;;;;;;;;;;7334485;19;154885;-16
2022/05/31 00:26:14;;;;;;;7.45;4.53;;;;;;;;;;7333622;19;153832;-15
2022/05/31 00:28:48;;;;;;;10.23;4.78;;;;;;;;;;7334016;19;161795;-16
2022/05/31 00:31:22;;;;;;;7.13;4.40;;;;;;;;;;7333588;19;162444;-15
2022/05/31 00:33:53;;;;;;;7.35;4.70;;;;;;;;;;7334389;19;154286;-15
2022/05/31 00:36:24;;;;;;;7.60;4.45;;;;;;;;;;7333037;19;153704;-16
2022/05/31 00:38:57;;;;;;;7.28;4.80;;;;;;;;;;7334219;19;161987;-17
2022/05/31 00:41:32;;;;;;;6.63;4.40;;;;;;;;;;7333633;19;163073;-15
2022/05/31 00:44:08;;;;;;;6.60;4.50;;;;;;;;;;7334195;19;154060;-16
2022/05/31 00:46:47;;;;;;;8.57;5.15;;;;;;;;;;7333019;19;153860;-15
2022/05/31 00:49:27;;;;;;;10.30;4.90;;;;;;;;;;7333101;19;162017;-16
2022/05/31 00:52:01;;;;;;;7.55;4.15;;;;;;;;;;7333615;19;162697;-15
2022/05/31 00:54:35;;;;;;;6.18;4.40;;;;;;;;;;7334016;19;154345;-15
2022/05/31 00:57:07;;;;;;;7.57;4.82;;;;;;;;;;7333858;19;153690;-15
2022/05/31 00:59:45;;;;;;;7.20;5.07;;;;;;;;;;7332254;19;161606;-14
2022/05/31 01:02:18;;;;;;;8.52;4.82;;;;;;;;;;7333177;19;162584;-16
2022/05/31 01:04:58;;;;;;;6.18;4.65;;;;;;;;;;7337383;19;154193;-16
2022/05/31 01:07:30;;;;;;;5.22;3.97;;;;;;;;;;7331817;19;153666;-16
2022/05/31 01:10:01;;;;;;;5.60;4.43;;;;;;;;;;7333200;19;161823;-16
2022/05/31 01:12:47;;;;;;;6.75;4.32;;;;;;;;;;7330803;19;162442;-16
2022/05/31 01:15:50;;;;;;;5.78;3.95;;;;;;;;;;7331873;19;153921;-16
2022/05/31 01:18:43;;;;;;;6.75;4.43;;;;;;;;;;7334990;19;132956;-16
2022/05/31 01:21:35;;;;;;;7.53;4.07;;;;;;;;;;7332707;19;161661;-15
2022/05/31 01:24:33;;;;;;;7.18;4.28;;;;;;;;;;7331762;19;162820;-16
2022/05/31 01:27:12;;;;;;;9.27;4.45;;;;;;;;;;7331776;19;154283;-16
2022/05/31 01:29:43;;;;;;;7.55;4.63;;;;;;;;;;7331284;19;153505;-16
2022/05/31 01:32:14;;;;;;;6.60;4.85;;;;;;;;;;7332326;19;161814;-16
2022/05/31 01:34:54;;;;;;;7.68;4.10;;;;;;;;;;7330917;19;162767;-16
2022/05/31 01:37:36;;;;;;;7.05;4.80;;;;;;;;;;7331236;19;154076;-16
2022/05/31 01:40:13;;;;;;;5.57;4.38;;;;;;;;;;7332217;19;153490;-15
2022/05/31 01:42:47;;;;;;;5.57;3.83;;;;;;;;;;7330740;19;162007;-16
2022/05/31 01:45:21;;;;;;;7.75;4.32;;;;;;;;;;7330700;19;162379;-22
2022/05/31 01:47:53;;;;;;;5.15;4.03;;;;;;;;;;7330566;19;154044;-16
2022/05/31 01:50:24;;;;;;;5.28;4.15;;;;;;;;;;7330194;19;153522;-16
2022/05/31 01:52:59;;;;;;;6.53;4.63;;;;;;;;;;7330607;19;161874;-18
2022/05/31 01:55:34;;;;;;;6.30;3.88;;;;;;;;;;7330620;19;162393;-16
2022/05/31 01:58:08;;;;;;;7.00;4.10;;;;;;;;;;7331363;19;154023;-17
2022/05/31 02:00:43;;;;;;;5.32;4.00;;;;;;;;;;7330568;19;153644;-16
2022/05/31 02:03:18;;;;;;;4.70;3.93;;;;;;;;;;7330411;19;161842;-16
2022/05/31 02:05:51;;;;;;;4.88;4.15;;;;;;;;;;7330162;19;162615;-16
2022/05/31 02:08:29;;;;;;;6.93;4.15;;;;;;;;;;7329631;19;154094;-16
2022/05/31 02:11:01;;;;;;;7.55;4.53;;;;;;;;;;7330177;19;153603;-16
2022/05/31 02:13:34;;;;;;;7.47;4.82;;;;;;;;;;7330045;19;161868;-18
2022/05/31 02:16:10;;;;;;;6.35;4.53;;;;;;;;;;7329864;19;162619;-16
2022/05/31 02:21:38;;;;;;;6.37;4.37;;;;;;;;;;7331405;19;153591;-16
2022/05/31 02:24:16;;;;;;;6.03;3.95;;;;;;;;;;7329472;19;161815;-16
2022/05/31 02:26:48;;;;;;;5.07;4.07;;;;;;;;;;7330850;19;162359;-16
2022/05/31 02:29:21;;;;;;;5.93;4.25;;;;;;;;;;7330066;19;153991;-16
2022/05/31 02:31:52;;;;;;;6.47;3.92;;;;;;;;;;7331075;19;153443;-16
2022/05/31 02:34:26;;;;;;;5.63;4.00;;;;;;;;;;7329417;19;161567;-16
2022/05/31 02:36:58;;;;;;;4.97;3.95;;;;;;;;;;7329285;19;162855;-16
2022/05/31 02:39:32;;;;;;;5.50;3.78;;;;;;;;;;7330949;19;153787;-16
2022/05/31 02:42:05;;;;;;;6.75;4.43;;;;;;;;;;7329464;19;153746;-16
2022/05/31 02:44:37;;;;;;;6.50;4.15;;;;;;;;;;7330240;19;161990;-16
2022/05/31 02:47:09;;;;;;;6.43;3.83;;;;;;;;;;7329075;19;162554;-16
2022/05/31 02:49:42;;;;;;;5.60;3.83;;;;;;;;;;7328803;19;154104;-16
2022/05/31 02:52:13;;;;;;;;;;;;;;;;;;7330012;19;153573;-16
2022/05/31 02:54:47;;;;;;;7.97;4.03;;;;;;;;;;7330405;19;161943;-16
2022/05/31 02:57:25;;;;;;;5.30;3.78;;;;;;;;;;7330233;19;162384;-16
2022/05/31 03:00:06;;;;;;;6.97;4.03;;;;;;;;;;7330402;19;153780;-16
2022/05/31 03:02:56;;;;;;;6.32;4.03;;;;;;;;;;7330304;19;153588;-16
2022/05/31 03:05:47;;;;;;;4.20;3.65;;;;;;;;;;7329704;19;162158;-16
2022/05/31 03:08:39;;;;;;;5.32;4.03;;;;;;;;;;7327043;19;162586;-16
2022/05/31 03:11:34;;;;;;;5.13;4.03;;;;;;;;;;7332397;19;154021;-16
2022/05/31 03:14:08;;;;;;;5.40;3.90;;;;;;;;;;7334604;19;153668;-16
2022/05/31 03:16:43;;;;;;;5.25;4.10;;;;;;;;;;7329711;19;162134;-17
2022/05/31 03:19:24;;;;;;;4.95;3.67;;;;;;;;;;7328193;19;162653;-16
2022/05/31 03:21:59;;;;;;;6.85;4.20;;;;;;;;;;7329562;19;154434;-16
2022/05/31 03:24:36;;;;;;;6.45;4.38;;;;;;;;;;7329673;19;154459;-15
2022/05/31 03:27:15;;;;;;;4.38;3.40;;;;;;;;;;7329277;19;161853;-16
2022/05/31 03:29:48;;;;;;;5.10;3.95;;;;;;;;;;7325246;19;162701;-16
2022/05/31 03:32:20;;;;;;;5.32;3.50;;;;;;;;;;7329575;19;154239;-16
2022/05/31 03:34:51;;;;;;;4.00;3.60;;;;;;;;;;7327527;19;153727;-16
2022/05/31 03:37:23;;;;;;;6.45;4.20;;;;;;;;;;7327708;19;161839;-16
2022/05/31 03:39:55;;;;;;;4.67;3.37;;;;;;;;;;7327833;19;162811;-16
2022/05/31 03:42:29;;;;;;;5.32;3.85;;;;;;;;;;7327744;19;154296;-16
2022/05/31 03:45:00;;;;;;;4.68;3.65;;;;;;;;;;7327560;19;153517;-16
2022/05/31 03:47:54;;;;;;;6.28;4.18;;;;;;;;;;7327321;19;162123;-16
2022/05/31 03:50:59;;;;;;;4.60;3.75;;;;;;;;;;7325786;19;163178;-16
2022/05/31 03:53:31;;;;;;;5.75;4.05;;;;;;;;;;7327590;19;154346;-16
2022/05/31 03:56:04;;;;;;;;;;;;;;;;;;7328388;19;153552;-16
2022/05/31 03:58:41;;;;;;;3.75;3.40;;;;;;;;;;7327334;19;162024;-16
2022/05/31 04:01:19;;;;;;;4.55;3.55;;;;;;;;;;7327147;19;162528;-16
2022/05/31 04:03:52;;;;;;;4.05;3.55;;;;;;;;;;7327408;19;154030;-16
2022/05/31 04:06:24;;;;;;;4.72;3.63;;;;;;;;;;7327164;19;153596;-16
2022/05/31 04:08:55;;;;;;;5.57;4.07;;;;;;;;;;7325877;19;162066;-16
2022/05/31 04:11:27;;;;;;;5.70;3.92;;;;;;;;;;7326719;19;162697;-16
2022/05/31 04:14:05;;;;;;;4.45;3.63;;;;;;;;;;7326954;19;154199;-16
2022/05/31 04:16:46;;;;;;;4.13;3.72;;;;;;;;;;7326809;19;153606;-16
2022/05/31 04:19:18;;;;;;;5.80;3.92;;;;;;;;;;7326428;19;162015;-16
2022/05/31 04:21:49;;;;;;;4.30;3.90;;;;;;;;;;7327338;19;162540;-16
2022/05/31 04:24:22;;;;;;;4.25;3.78;;;;;;;;;;7326624;19;154359;-16
2022/05/31 04:27:18;;;;;;;4.25;3.63;;;;;;;;;;7325872;19;153497;-15
2022/05/31 04:30:12;;;;;;;4.28;3.85;;;;;;;;;;7325221;19;161977;-17
2022/05/31 04:33:04;;;;;;;4.95;3.42;;;;;;;;;;7327072;19;162706;-16
2022/05/31 04:35:38;;;;;;;4.10;3.50;;;;;;;;;;7326387;19;154144;-16
2022/05/31 04:38:10;;;;;;;4.40;3.72;;;;;;;;;;7326060;19;153886;-15
2022/05/31 04:41:18;;;;;;;4.40;3.80;;;;;;;;;;7326014;19;161877;-16
2022/05/31 04:44:04;;;;;;;4.72;4.00;;;;;;;;;;7325465;19;162336;-16
2022/05/31 04:46:39;;;;;;;3.83;3.42;;;;;;;;;;7328592;19;154370;-16
2022/05/31 04:49:21;;;;;;;4.47;3.65;;;;;;;;;;7331863;19;153714;-16
2022/05/31 04:51:52;;;;;;;5.47;4.07;;;;;;;;;;7333750;19;161900;-16
2022/05/31 04:54:30;;;;;;;3.88;3.28;;;;;;;;;;7332463;19;162695;-16
2022/05/31 04:57:16;;;;;;;3.97;3.55;;;;;;;;;;7332778;19;154145;-16
2022/05/31 04:59:47;;;;;;;4.20;3.30;;;;;;;;;;7332608;19;153658;-16
2022/05/31 05:02:24;;;;;;;5.43;3.85;;;;;;;;;;7332884;19;162128;-16
2022/05/31 05:05:03;;;;;;;3.78;2.90;;;;;;;;;;7332092;19;162454;-16
2022/05/31 05:07:53;;;;;;;3.30;2.80;;;;;;;;;;7332164;19;154082;-16
2022/05/31 05:10:27;;;;;;;3.83;3.45;;;;;;;;;;7330214;19;153514;-16
2022/05/31 05:13:27;;;;;;;4.20;3.60;;;;;;;;;;7332082;19;161641;-17
2022/05/31 05:16:22;;;;;;;5.53;4.30;;;;;;;;;;7332863;19;163115;-16
2022/05/31 05:18:59;;;;;;;5.05;3.58;;;;;;;;;;7332078;19;154324;-16
2022/05/31 05:21:31;;;;;;;4.47;3.50;;;;;;;;;;7332298;19;153521;-17
2022/05/31 05:24:04;;;;;;;6.93;5.18;;;;;;;;;;7330739;19;161650;-17
2022/05/31 05:26:49;;;;;;;5.82;4.30;;;;;;;;;;7331275;19;162394;-16
2022/05/31 05:32:40;;;;;;;6.38;4.38;;;;;;;;;;7331221;19;153830;-17
2022/05/31 05:35:26;;;;;;;5.80;4.68;;;;;;;;;;7330499;19;161866;-16
2022/05/31 05:38:09;;;;;;;7.38;4.68;;;;;;;;;;7330730;19;162645;-16
2022/05/31 05:41:00;;;;;;;9.13;4.43;;;;;;;;;;7330165;19;154457;-17
2022/05/31 05:43:49;;;;;;;6.38;4.70;;;;;;;;;;7330855;19;153507;-17
2022/05/31 05:46:25;;;;;;;9.05;5.20;;;;;;;;;;7330702;19;161841;-18
2022/05/31 05:48:58;;;;;;;5.72;4.30;;;;;;;;;;7331529;19;162387;-17
2022/05/31 05:51:34;;;;;;;6.43;4.72;;;;;;;;;;7328297;19;154135;-17
2022/05/31 05:54:24;;;;;;;5.55;4.32;;;;;;;;;;7331949;19;153507;-17
2022/05/31 05:57:13;;;;;;;7.28;4.32;;;;;;;;;;7327394;19;162094;-17
2022/05/31 06:00:03;;;;;;;5.88;4.20;;;;;;;;;;7326994;19;162400;-17
2022/05/31 06:03:00;;;;;;;9.43;4.93;;;;;;;;;;7327348;19;154303;-17
2022/05/31 06:05:57;;;;;;;7.45;4.28;;;;;;;;;;7326653;19;153971;-17
2022/05/31 06:08:36;;;;;;;8.88;4.53;;;;;;;;;;7325503;19;162083;-17
2022/05/31 06:11:11;;;;;;;6.38;4.63;;;;;;;;;;7323048;19;162456;-17
2022/05/31 06:13:50;;;;;;;6.75;4.40;;;;;;;;;;7329613;19;154319;-16
2022/05/31 06:16:24;;;;;;;6.13;4.30;;;;;;;;;;7330350;19;153641;-15
2022/05/31 06:18:59;;;;;;;6.00;4.38;;;;;;;;;;7329912;19;162038;-15
2022/05/31 06:21:31;;;;;;;7.30;4.18;;;;;;;;;;7330698;19;162164;-16
2022/05/31 06:24:18;;;;;;;6.18;4.15;;;;;;;;;;7329992;19;154080;-16
2022/05/31 06:26:50;;;;;;;5.28;3.92;;;;;;;;;;7329794;19;153467;-16
2022/05/31 06:29:21;;;;;;;6.45;3.92;;;;;;;;;;7329201;19;161945;-16
2022/05/31 06:31:52;;;;;;;4.63;3.97;;;;;;;;;;7326280;19;162668;-16
2022/05/31 06:34:32;;;;;;;6.18;4.20;;;;;;;;;;7329257;19;154292;-16
2022/05/31 06:37:22;;;;;;;5.75;3.97;;;;;;;;;;7331133;19;153686;-17
2022/05/31 06:39:56;;;;;;;6.25;4.22;;;;;;;;;;7329125;19;162033;-16
2022/05/31 06:42:45;;;;;;;5.25;3.95;;;;;;;;;;7329076;19;162523;-16
2022/05/31 06:45:52;;;;;;;6.18;3.90;;;;;;;;;;7327335;19;154210;-17
2022/05/31 06:48:42;;;;;;;7.93;4.90;;;;;;;;;;7329976;19;153684;-17
2022/05/31 06:56:48;;;;;;;7.57;4.93;;;;;;;;;;7327182;19;161949;-16
2022/05/31 06:57:51;;;;;;;6.72;4.13;;;;;;;;;;7330062;19;154394;-18
2022/05/31 07:00:35;;;;;;;5.20;4.50;;;;;;;;;;7328889;19;153579;-16
2022/05/31 07:03:08;;;;;;;4.85;4.30;;;;;;;;;;7328513;19;161817;-16
2022/05/31 07:05:42;;;;;;;7.40;3.95;;;;;;;;;;7328388;19;162664;-16
2022/05/31 07:08:21;;;;;;;9.32;4.38;;;;;;;;;;7332477;19;154032;-18
2022/05/31 07:11:12;;;;;;;7.85;4.10;;;;;;;;;;7325924;19;153940;-16
2022/05/31 07:14:04;;;;;;;7.78;4.28;;;;;;;;;;7333615;19;161836;-16
2022/05/31 07:17:11;;;;;;;5.22;3.95;;;;;;;;;;7325971;19;162628;-16
2022/05/31 07:19:49;;;;;;;8.65;4.30;;;;;;;;;;7328097;19;154019;-16
2022/05/31 07:22:36;;;;;;;7.35;4.20;;;;;;;;;;7328348;19;153545;-16
2022/05/31 07:25:29;;;;;;;4.72;4.07;;;;;;;;;;7329094;19;161853;-16
2022/05/31 07:28:11;;;;;;;4.90;4.43;;;;;;;;;;7327899;19;162696;-16
2022/05/31 07:30:45;;;;;;;5.75;4.13;;;;;;;;;;7327454;19;154125;-17
2022/05/31 07:33:25;;;;;;;7.18;4.15;;;;;;;;;;7328073;19;153821;-16
2022/05/31 07:36:13;;;;;;;7.13;4.45;;;;;;;;;;7327651;19;161809;-17
2022/05/31 07:39:05;;;;;;;6.97;4.18;;;;;;;;;;7327453;19;162536;-16
2022/05/31 07:41:36;;;;;;;6.57;4.15;;;;;;;;;;7327869;19;154005;-17
2022/05/31 07:44:09;;;;;;;7.57;3.95;;;;;;;;;;7327819;19;153474;-17
2022/05/31 07:46:43;;;;;;;6.65;3.85;;;;;;;;;;7327156;19;162035;-22
2022/05/31 07:49:15;;;;;;;7.20;4.50;;;;;;;;;;7327114;19;162725;-16
2022/05/31 07:52:12;;;;;;;5.90;4.03;;;;;;;;;;7325529;19;154106;-16
2022/05/31 07:54:49;;;;;;;5.47;3.78;;;;;;;;;;7328493;19;153682;-16
2022/05/31 08:00:54;;;;;;;6.70;3.67;;;;;;;;;;7324843;19;163006;-16
2022/05/31 08:03:30;;;;;;;4.57;3.90;;;;;;;;;;7326387;19;154194;-17
2022/05/31 08:06:06;;;;;;;5.60;3.60;;;;;;;;;;7328360;19;153544;-17
2022/05/31 08:08:37;;;;;;;4.80;3.70;;;;;;;;;;7328165;19;161900;-16
2022/05/31 08:11:14;;;;;;;6.95;4.13;;;;;;;;;;7327108;19;162459;-16
2022/05/31 08:13:53;;;;;;;6.07;4.20;;;;;;;;;;7328135;19;154085;-17
2022/05/31 08:16:33;;;;;;;4.18;3.53;;;;;;;;;;7326911;19;153521;-16
2022/05/31 08:19:10;;;;;;;4.85;3.55;;;;;;;;;;7327632;19;161969;-16
2022/05/31 08:21:42;;;;;;;5.57;3.60;;;;;;;;;;7331821;19;162672;-16
2022/05/31 08:24:13;;;;;;;5.43;3.90;;;;;;;;;;7333540;19;154216;-16
2022/05/31 08:27:00;;;;;;;6.03;4.05;;;;;;;;;;7333547;19;154109;-16
2022/05/31 08:29:32;;;;;;;4.10;3.20;;;;;;;;;;7334440;19;161965;-16
2022/05/31 08:32:03;;;;;;;5.85;3.65;;;;;;;;;;7332952;19;162467;-16
2022/05/31 08:34:37;;;;;;;7.05;3.83;;;;;;;;;;7334418;19;154097;-17
2022/05/31 08:37:09;;;;;;;5.00;3.67;;;;;;;;;;7334460;19;153724;-16
2022/05/31 08:39:40;;;;;;;4.55;4.07;;;;;;;;;;7334000;19;161960;-16
2022/05/31 08:42:15;;;;;;;4.93;3.72;;;;;;;;;;7333027;19;162503;-16
2022/05/31 08:44:56;;;;;;;5.38;3.97;;;;;;;;;;7334047;19;153966;-17
2022/05/31 08:47:40;;;;;;;4.85;4.07;;;;;;;;;;7333925;19;153960;-16
2022/05/31 08:53:19;;;;;;;6.80;3.80;;;;;;;;;;7331703;19;162467;-17
2022/05/31 08:58:46;;;;;;;6.07;3.67;;;;;;;;;;7332192;19;153629;-17
2022/05/31 09:01:21;;;;;;;4.45;3.47;;;;;;;;;;7333239;19;161707;-16
2022/05/31 09:03:58;;;;;;;5.10;3.20;;;;;;;;;;7333143;19;162773;-17
2022/05/31 09:06:39;;;;;;;3.53;3.22;;;;;;;;;;7333562;19;154014;-17
2022/05/31 09:09:18;;;;;;;3.50;3.20;;;;;;;;;;7333435;19;153684;-17
2022/05/31 09:11:59;;;;;;;3.45;3.05;;;;;;;;;;7331627;19;161981;-16
2022/05/31 09:14:44;;;;;;;4.40;3.58;;;;;;;;;;7332889;19;162669;-16
2022/05/31 09:17:28;;;;;;;4.32;3.58;;;;;;;;;;7336271;19;153973;-16
2022/05/31 09:20:04;;;;;;;4.97;3.10;;;;;;;;;;7333130;19;153842;-17
2022/05/31 09:22:40;;;;;;;4.05;3.65;;;;;;;;;;7332761;19;161868;-16
2022/05/31 09:25:13;;;;;;;4.15;3.67;;;;;;;;;;7332685;19;162366;-16
2022/05/31 09:27:47;;;;;;;3.97;3.35;;;;;;;;;;7333174;19;154212;-16
2022/05/31 09:30:28;;;;;;;4.60;3.40;;;;;;;;;;7333013;19;153472;-17
2022/05/31 09:33:12;;;;;;;3.50;3.20;;;;;;;;;;7328070;19;161829;-17
2022/05/31 09:36:02;;;;;;;4.50;3.17;;;;;;;;;;7331138;19;162447;-16
2022/05/31 09:38:58;;;;;;;3.33;3.03;;;;;;;;;;7332686;19;154718;-16
2022/05/31 09:41:35;;;;;;;4.75;3.45;;;;;;;;;;7331257;19;153846;-16
2022/05/31 09:44:14;;;;;;;4.22;3.28;;;;;;;;;;7332095;19;162020;-16
2022/05/31 09:46:51;;;;;;;4.65;3.13;;;;;;;;;;7332254;19;162551;-16
2022/05/31 09:49:35;;;;;;;5.13;3.75;;;;;;;;;;7332097;19;154019;-16
2022/05/31 09:52:11;;;;;;;3.72;3.33;;;;;;;;;;7331841;19;153555;-17
2022/05/31 09:58:26;;;;;;;4.20;3.10;;;;;;;;;;7329958;19;162875;-17
2022/05/31 10:01:29;;;;;;;4.40;3.40;;;;;;;;;;7332107;19;154154;-17
2022/05/31 10:04:26;;;;;;;4.63;3.65;;;;;;;;;;7330757;19;153766;-17
2022/05/31 10:07:01;;;;;;;5.15;3.17;;;;;;;;;;7331534;19;162109;-15
2022/05/31 10:09:36;;;;;;;4.03;3.22;;;;;;;;;;7331290;19;162454;-17
2022/05/31 10:12:26;;;;;;;3.50;2.92;;;;;;;;;;7331450;19;154136;-17
2022/05/31 10:15:03;;;;;;;3.88;3.08;;;;;;;;;;7330387;19;153524;-16
2022/05/31 10:17:38;;;;;;;6.50;3.65;;;;;;;;;;7330769;19;161950;-16
2022/05/31 10:20:15;;;;;;;5.43;2.83;;;;;;;;;;7331840;19;162715;-17
2022/05/31 10:23:02;;;;;;;4.72;3.22;;;;;;;;;;7331341;19;153950;-16
2022/05/31 10:25:56;;;;;;;3.40;3.10;;;;;;;;;;7331055;19;153602;-17
2022/05/31 10:28:55;;;;;;;3.83;3.35;;;;;;;;;;7329598;19;162221;-17
2022/05/31 10:31:48;;;;;;;4.15;3.55;;;;;;;;;;7329590;19;162392;-16
2022/05/31 10:34:36;;;;;;;6.35;3.65;;;;;;;;;;7328628;19;154171;-17
2022/05/31 10:37:24;;;;;;;3.92;3.17;;;;;;;;;;7330719;19;153682;-16
2022/05/31 10:40:03;;;;;;;2.70;2.50;;;;;;;;;;7330408;19;162052;-17
2022/05/31 10:42:41;;;;;;;3.88;2.97;;;;;;;;;;7329141;19;162673;-17
2022/05/31 10:45:23;;;;;;;3.10;2.90;;;;;;;;;;7329436;19;154254;-17
2022/05/31 10:47:56;;;;;;;5.15;3.42;;;;;;;;;;7330508;19;153593;-16
2022/05/31 10:50:33;;;;;;;;;;;;;;;;;;7330458;19;161732;-17
2022/05/31 10:53:21;;;;;;;4.45;3.22;;;;;;;;;;7333821;19;162768;-17
2022/05/31 10:56:02;;;;;;;4.10;3.13;;;;;;;;;;7332634;19;154153;-16
2022/05/31 10:58:46;;;;;;;5.15;3.05;;;;;;;;;;7331504;19;154302;-16
2022/05/31 11:01:33;;;;;;;4.53;3.20;;;;;;;;;;7332061;19;161796;-17
2022/05/31 11:04:16;;;;;;;3.78;3.35;;;;;;;;;;7333015;19;162385;-16
2022/05/31 11:06:57;;;;;;;4.35;3.00;;;;;;;;;;7332161;19;155543;-17
2022/05/31 11:12:49;;;;;;;4.18;3.03;;;;;;;;;;7329579;19;161986;-16
2022/05/31 11:15:34;;;;;;;3.25;2.90;;;;;;;;;;7329586;19;162358;-16
2022/05/31 11:18:22;;;;;;;5.05;3.15;;;;;;;;;;7329948;19;154128;-17
2022/05/31 11:21:00;;;;;;;3.53;2.80;;;;;;;;;;7329810;19;153706;-17
2022/05/31 11:23:49;;;;;;;4.35;2.80;;;;;;;;;;7332838;19;161791;-17
2022/05/31 11:26:45;;;;;;;6.80;3.60;;;;;;;;;;7329743;19;162438;-17
2022/05/31 11:29:52;;;;;;;7.18;4.18;;;;;;;;;;7328242;19;154559;-17
2022/05/31 11:32:38;;;;;;;8.00;5.13;;;;;;;;;;7329363;19;153469;-17
2022/05/31 11:35:25;;;;;;;6.18;4.65;;;;;;;;;;7326385;19;162053;-17
2022/05/31 11:38:06;;;;;;;8.40;5.00;;;;;;;;;;7328607;19;162472;-17
2022/05/31 11:40:46;;;;;;;6.88;4.25;;;;;;;;;;7329220;19;154027;-18
2022/05/31 11:43:47;;;;;;;8.55;4.70;;;;;;;;;;7328658;19;153662;-17
2022/05/31 11:46:29;;;;;;;8.38;3.95;;;;;;;;;;7328327;19;162185;-17
2022/05/31 11:49:04;;;;;;;7.05;4.03;;;;;;;;;;7329201;19;162474;-17
2022/05/31 11:52:09;;;;;;;5.88;4.32;;;;;;;;;;7327708;19;154010;-17
2022/05/31 11:58:00;;;;;;;7.13;5.00;;;;;;;;;;7337203;19;161823;-17
2022/05/31 12:00:40;;;;;;;5.95;4.30;;;;;;;;;;7335295;19;162487;-17
2022/05/31 12:03:18;;;;;;;4.28;3.58;;;;;;;;;;7338509;19;154113;-17
2022/05/31 12:05:53;;;;;;;4.70;3.83;;;;;;;;;;7338564;19;153581;-17
2022/05/31 12:08:30;;;;;;;5.85;3.88;;;;;;;;;;7334543;19;161956;-17
2022/05/31 12:11:12;;;;;;;4.72;4.10;;;;;;;;;;7334360;19;162482;-17
2022/05/31 12:13:47;;;;;;;4.25;3.85;;;;;;;;;;7334391;19;154341;-17
2022/05/31 12:16:18;;;;;;;5.20;3.85;;;;;;;;;;7333508;19;153731;-16
2022/05/31 12:18:59;;;;;;;6.40;4.25;;;;;;;;;;7333521;19;161956;-17
2022/05/31 12:21:37;;;;;;;6.15;3.78;;;;;;;;;;7334300;19;163049;-17
2022/05/31 12:24:13;;;;;;;6.28;4.03;;;;;;;;;;7337502;19;154051;-18
2022/05/31 12:26:55;;;;;;;4.65;3.58;;;;;;;;;;7333525;19;153727;-17
2022/05/31 12:29:30;;;;;;;5.20;4.03;;;;;;;;;;7335808;19;161822;-20
2022/05/31 12:32:31;;;;;;;5.28;3.70;;;;;;;;;;7337188;19;162147;-17
2022/05/31 12:35:04;;;;;;;6.63;4.45;;;;;;;;;;7334695;19;154016;-16
2022/05/31 12:37:53;;;;;;;5.20;3.47;;;;;;;;;;7334190;19;153625;-17
2022/05/31 12:40:30;;;;;;;5.18;3.70;;;;;;;;;;7332311;19;161841;-16
2022/05/31 12:43:06;;;;;;;6.05;3.70;;;;;;;;;;7333785;19;162504;-17
2022/05/31 12:45:47;;;;;;;4.95;4.13;;;;;;;;;;7334111;19;153997;-17
2022/05/31 12:48:22;;;;;;;4.13;3.63;;;;;;;;;;7334134;19;153533;-17
2022/05/31 12:51:11;;;;;;;4.75;3.85;;;;;;;;;;7331610;19;161946;-16
2022/05/31 12:53:58;;;;;;;4.78;3.38;;;;;;;;;;7333280;19;163085;-16
2022/05/31 12:57:07;;;;;;;4.55;3.55;;;;;;;;;;7333926;19;153982;-16
2022/05/31 13:00:00;;;;;;;3.88;3.35;;;;;;;;;;7333517;19;153528;-18
2022/05/31 13:02:41;;;;;;;4.57;3.67;;;;;;;;;;7333598;19;161806;-19
2022/05/31 13:05:39;;;;;;;6.53;2.85;;;;;;;;;;7333799;19;162369;-16
2022/05/31 13:08:17;;;;;;;4.03;2.78;;;;;;;;;;7334684;19;154335;-16
2022/05/31 13:22:03;;;;;;;5.90;3.42;;;;;;;;;;7332955;19;153523;-17
2022/05/31 13:24:36;;;;;;;7.18;3.67;;;;;;;;;;7332732;19;162130;-16
2022/05/31 13:27:10;;;;;;;6.07;3.80;;;;;;;;;;7334603;19;162749;-18
2022/05/31 13:29:41;;;;;;;9.55;4.35;;;;;;;;;;7335149;19;154064;-17
2022/05/31 13:32:15;;;;;;;10.90;5.20;;;;;;;;;;7332738;19;153610;-17
2022/05/31 13:34:51;;;;;;;8.93;5.07;;;;;;;;;;7331483;19;161879;-17
2022/05/31 13:37:23;;;;;;;11.00;4.82;;;;;;;;;;7332016;19;162536;-17
2022/05/31 13:39:54;;;;;;;11.23;6.03;;;;;;;;;;7332597;19;154107;-17
2022/05/31 13:42:34;;;;;;;13.63;6.53;;;;;;;;;;7334877;19;153651;-18
2022/05/31 13:45:08;;;;;;;11.55;6.18;;;;;;;;;;7332129;19;162103;-16
2022/05/31 13:47:49;;;;;;;15.45;5.93;;;;;;;;;;7332436;19;162491;-17
2022/05/31 13:50:23;;;;;;;14.93;6.53;;;;;;;;;;7331500;19;154067;-17
2022/05/31 13:52:55;;;;;;;19.13;7.13;;;;;;;;;;7330146;19;153574;-17
2022/05/31 13:55:30;;;;;;;12.55;6.32;;;;;;;;;;7330761;19;162022;-16
2022/05/31 13:58:02;;;;;;;12.13;6.85;;;;;;;;;;7331725;19;162582;-17
2022/05/31 14:00:35;;;;;;;13.10;6.82;;;;;;;;;;7331042;19;154262;-17
2022/05/31 14:03:27;;;;;;;14.07;7.20;;;;;;;;;;7330969;19;153695;-16
2022/05/31 14:06:01;;;;;;;18.23;7.43;;;;;;;;;;7331239;19;161709;-18
2022/05/31 14:08:39;;;;;;;13.18;7.25;;;;;;;;;;7331898;19;162238;-17
2022/05/31 14:11:23;;;;;;;14.85;7.32;;;;;;;;;;7335720;19;154482;-16
2022/05/31 14:13:57;;;;;;;18.83;7.95;;;;;;;;;;7332879;19;153972;-17
2022/05/31 14:16:37;;;;;;;17.48;8.27;;;;;;;;;;7329327;19;161960;-17
2022/05/31 14:19:17;;;;;;;14.90;7.90;;;;;;;;;;7330294;19;162365;-17
2022/05/31 14:21:51;;;;;;;17.23;7.75;;;;;;;;;;7331950;19;154130;-17
2022/05/31 14:24:26;;;;;;;16.13;7.95;;;;;;;;;;7331577;19;153698;-18
2022/05/31 14:27:01;;;;;;;17.80;8.10;;;;;;;;;;7330073;19;162076;-16
2022/05/31 14:29:34;;;;;;;16.95;8.10;;;;;;;;;;7331052;19;162658;-16
2022/05/31 14:32:23;;;;;;;15.43;7.82;;;;;;;;;;7331163;19;154019;-17
2022/05/31 14:34:57;;;;;;;14.52;8.38;;;;;;;;;;7331079;19;153666;-18
2022/05/31 14:37:35;;;;;;;14.65;8.10;;;;;;;;;;7330463;19;161780;-16
2022/05/31 14:40:11;;;;;;;16.10;8.18;;;;;;;;;;7334626;19;162590;-17
2022/05/31 14:42:44;;;;;;;15.45;7.78;;;;;;;;;;7330954;19;154850;-18
2022/05/31 14:45:16;;;;;;;16.23;7.78;;;;;;;;;;7330818;19;153725;-17
2022/05/31 14:47:47;;;;;;;16.65;7.65;;;;;;;;;;7333063;19;161968;-18
2022/05/31 14:50:32;;;;;;;12.95;6.80;;;;;;;;;;7330530;19;162693;-17
2022/05/31 14:53:18;;;;;;;13.07;7.68;;;;;;;;;;7327989;19;154605;-17
2022/05/31 14:55:51;;;;;;;18.77;7.97;;;;;;;;;;7329718;19;153593;-17
2022/05/31 14:58:41;;;;;;;14.63;7.75;;;;;;;;;;7330390;19;161964;-17
2022/05/31 15:01:30;;;;;;;14.73;7.72;;;;;;;;;;7330080;19;163108;-17
2022/05/31 15:04:05;;;;;;;14.15;7.82;;;;;;;;;;7330362;19;154028;-16
2022/05/31 15:06:41;;;;;;;12.18;7.85;;;;;;;;;;7330325;19;153551;-17
2022/05/31 15:09:27;;;;;;;13.60;7.22;;;;;;;;;;7331144;19;161920;-16
2022/05/31 15:20:20;;;;;;;16.25;7.88;;;;;;;;;;7329721;19;161861;-17
2022/05/31 15:22:54;;;;;;;12.15;6.80;;;;;;;;;;7329514;19;162365;-18
2022/05/31 15:25:30;;;;;;;15.88;7.20;;;;;;;;;;7329853;19;154018;-17
2022/05/31 15:28:01;;;;;;;13.35;7.13;;;;;;;;;;7329798;19;153597;-18
2022/05/31 15:30:32;;;;;;;12.75;7.60;;;;;;;;;;7326977;19;161962;-17
2022/05/31 15:33:04;;;;;;;13.48;6.80;;;;;;;;;;7333582;19;162401;-17
2022/05/31 15:35:35;;;;;;;14.07;7.00;;;;;;;;;;7329238;19;154197;-17
2022/05/31 15:38:19;;;;;;;13.13;6.82;;;;;;;;;;7329262;19;154262;-18
2022/05/31 15:40:51;;;;;;;12.88;7.68;;;;;;;;;;7327697;19;161880;-17
2022/05/31 15:46:07;;;;;;;13.82;7.07;;;;;;;;;;7329008;19;154564;-18
2022/05/31 15:48:38;;;;;;;12.30;7.47;;;;;;;;;;7329146;19;153787;-18
2022/05/31 15:51:09;;;;;;;11.00;6.70;;;;;;;;;;7328039;19;161930;-23
2022/05/31 15:53:46;;;;;;;13.68;6.60;;;;;;;;;;7330932;19;163606;-17
2022/05/31 15:56:17;;;;;;;10.43;5.47;;;;;;;;;;7329554;19;154098;-17
2022/05/31 15:58:50;;;;;;;10.60;6.35;;;;;;;;;;7329386;19;153501;-18
2022/05/31 16:01:22;;;;;;;9.98;6.15;;;;;;;;;;7326535;19;161836;-18
2022/05/31 16:03:53;;;;;;;11.27;5.72;;;;;;;;;;7326604;19;162542;-18
2022/05/31 16:06:25;;;;;;;9.80;5.53;;;;;;;;;;7327105;19;154046;-17
2022/05/31 16:09:00;;;;;;;6.78;3.60;;;;;;;;;;7329165;19;153737;-17
2022/05/31 16:11:34;;;;;;;4.25;2.33;;;;;;;;;;7331148;19;161995;-17
2022/05/31 16:14:05;;;;;;;5.65;2.60;;;;;;;;;;7332293;19;163814;-17
2022/05/31 16:16:37;;;;;;;4.65;2.70;;;;;;;;;;7330092;19;153849;-17
2022/05/31 16:19:08;;;;;;;5.53;2.15;;;;;;;;;;7331688;19;153783;-18
2022/05/31 16:21:41;;;;;;;5.80;2.70;;;;;;;;;;7327466;19;161998;-18
2022/05/31 16:24:17;;;;;;;5.97;2.75;;;;;;;;;;7327308;19;162317;-16
2022/05/31 16:26:49;;;;;;;4.25;2.67;;;;;;;;;;7327602;19;154165;-16
2022/05/31 16:29:20;;;;;;;7.53;2.78;;;;;;;;;;7327299;19;153597;-16